CYNL

METAR CYNL 252300Z AUTO 29003KT OVC041 05/M03 A2994 RMK AO1 SLP160
METAR
LOCATION
CYNL
DATE - TIME
252300Z
WIND
290 TRUE @ 3 KNOTS
VISIBILITY
RUNWAY VISUAL RANGE
NOT REPORTED
WEATHER
CLOUDINESS
OVC041
TEMP / DEWPOINT
5 ºC / -3 ºC
ALTIMETER
29.94 in. Hg
RECENT WEATHER
NOT REPORTED
WIND SHEAR
NOT REPORTED
REMARKS
RMK AO1 SLP160
SEA LEVEL PRESSURE: hPa

CYNL

METAR CYNL 252200Z AUTO 29007KT OVC046 05/M03 A2995 RMK AO1 SLP162
METAR
LOCATION
CYNL
DATE - TIME
252200Z
WIND
290 TRUE @ 7 KNOTS
VISIBILITY
RUNWAY VISUAL RANGE
NOT REPORTED
WEATHER
CLOUDINESS
OVC046
TEMP / DEWPOINT
5 ºC / -3 ºC
ALTIMETER
29.95 in. Hg
RECENT WEATHER
NOT REPORTED
WIND SHEAR
NOT REPORTED
REMARKS
RMK AO1 SLP162
SEA LEVEL PRESSURE: hPa

CYNL

METAR CYNL 252100Z AUTO 30004KT OVC050 05/M02 A2995 RMK AO1 SLP164
METAR
LOCATION
CYNL
DATE - TIME
252100Z
WIND
300 TRUE @ 4 KNOTS
VISIBILITY
RUNWAY VISUAL RANGE
NOT REPORTED
WEATHER
CLOUDINESS
OVC050
TEMP / DEWPOINT
5 ºC / -2 ºC
ALTIMETER
29.95 in. Hg
RECENT WEATHER
NOT REPORTED
WIND SHEAR
NOT REPORTED
REMARKS
RMK AO1 SLP164
SEA LEVEL PRESSURE: hPa

Your time UTC time
 
 
Weather data provided by AXYS Technologies Inc., www.axystechnologies.com
 
Station History